createdAt,value
2023-04-03T00:01:33.583Z,2.70
2023-04-03T00:12:33.457Z,2.30
2023-04-03T00:23:33.350Z,1.50
2023-04-03T00:34:33.229Z,1.90
2023-04-03T00:45:33.164Z,2.20
2023-04-03T00:56:33.005Z,2.20
2023-04-03T01:07:32.842Z,2.10
2023-04-03T01:18:32.723Z,2.50
2023-04-03T01:29:32.603Z,2.40
2023-04-03T01:40:32.466Z,2.60
2023-04-03T01:51:32.353Z,2.30
2023-04-03T02:02:32.260Z,2.80
2023-04-03T02:13:32.091Z,2.00
2023-04-03T02:24:31.993Z,2.30
2023-04-03T02:35:31.850Z,3.00
2023-04-03T02:46:31.899Z,2.90
2023-04-03T02:57:31.722Z,2.80
2023-04-03T03:08:31.487Z,4.10
2023-04-03T03:19:31.340Z,1.90
2023-04-03T03:30:31.217Z,2.40
2023-04-03T03:41:31.104Z,2.60
2023-04-03T03:52:30.978Z,2.90
2023-04-03T04:03:30.952Z,3.00
2023-04-03T04:14:30.750Z,3.50
2023-04-03T04:25:30.608Z,3.70
2023-04-03T04:36:30.588Z,3.10
2023-04-03T04:47:30.392Z,2.80
2023-04-03T04:58:30.247Z,3.20
2023-04-03T05:09:30.122Z,2.70
2023-04-03T05:20:30.035Z,3.30
2023-04-03T05:31:29.914Z,3.30
2023-04-03T05:42:29.766Z,3.40
2023-04-03T05:53:29.666Z,3.80
2023-04-03T06:04:29.553Z,3.70
2023-04-03T06:15:29.394Z,3.10
2023-04-03T06:26:29.253Z,3.50
2023-04-03T06:37:29.126Z,3.00
2023-04-03T06:48:28.996Z,2.20
2023-04-03T06:59:28.871Z,2.40
2023-04-03T07:10:28.785Z,2.90
2023-04-03T07:21:28.623Z,3.30
2023-04-03T07:32:28.519Z,2.80
2023-04-03T07:43:28.374Z,2.90
2023-04-03T07:54:28.334Z,2.90
2023-04-03T08:05:28.121Z,2.90
2023-04-03T08:16:28.093Z,3.20
2023-04-03T08:27:27.878Z,2.60
2023-04-03T08:38:27.760Z,2.60
2023-04-03T08:49:27.682Z,2.90
2023-04-03T09:00:27.499Z,2.20
2023-04-03T09:11:27.405Z,2.10
2023-04-03T09:22:27.270Z,1.80
2023-04-03T09:33:27.126Z,1.70
2023-04-03T09:44:27.015Z,1.60
2023-04-03T09:55:27.009Z,1.70
2023-04-03T10:06:26.754Z,2.20
2023-04-03T10:17:26.810Z,1.90
2023-04-03T10:28:26.503Z,1.60
2023-04-03T10:39:26.391Z,1.70
2023-04-03T10:50:26.262Z,1.60
2023-04-03T11:01:26.206Z,1.40
2023-04-03T11:12:26.151Z,1.40
2023-04-03T11:23:26.881Z,1.00
2023-04-03T11:34:25.777Z,1.50
2023-04-03T11:45:25.807Z,1.60
2023-04-03T11:56:25.602Z,1.60
2023-04-03T12:07:25.491Z,1.50
2023-04-03T12:18:25.593Z,1.40
2023-04-03T12:29:25.292Z,1.50
2023-04-03T12:40:25.204Z,1.90
2023-04-03T12:51:24.882Z,1.20
2023-04-03T13:02:24.755Z,1.90
2023-04-03T13:13:24.659Z,1.90
2023-04-03T13:24:24.514Z,1.60
2023-04-03T13:35:24.421Z,2.10
2023-04-03T13:46:24.384Z,1.80
2023-04-03T13:57:24.193Z,1.70
2023-04-03T14:08:29.462Z,1.90
2023-04-03T14:19:23.875Z,2.10
2023-04-03T14:30:23.754Z,1.40
2023-04-03T14:41:23.686Z,1.80
2023-04-03T14:52:23.520Z,1.80
2023-04-03T15:03:23.538Z,1.30
2023-04-03T15:14:35.754Z,2.10
2023-04-03T15:25:23.176Z,2.90
2023-04-03T15:36:34.129Z,1.40
2023-04-03T15:47:22.903Z,1.90
2023-04-03T15:58:22.893Z,1.00
2023-04-03T16:09:22.681Z,1.20
2023-04-03T16:20:22.530Z,1.30
2023-04-03T16:31:22.466Z,1.40
2023-04-03T16:42:22.262Z,1.40
2023-04-03T16:53:22.137Z,2.90
2023-04-03T17:04:22.026Z,1.20
2023-04-03T17:15:21.902Z,1.40
2023-04-03T17:26:21.782Z,1.90
2023-04-03T17:37:21.668Z,1.30
2023-04-03T17:48:21.510Z,2.30
2023-04-03T17:59:21.431Z,2.20
2023-04-03T18:10:21.272Z,2.80
2023-04-03T18:21:21.767Z,1.60
2023-04-03T18:32:21.144Z,1.90
2023-04-03T18:43:20.897Z,1.80
2023-04-03T18:54:20.812Z,2.10
2023-04-03T19:05:20.793Z,1.90
2023-04-03T19:16:20.559Z,1.90
2023-04-03T19:27:20.391Z,1.80
2023-04-03T19:38:20.283Z,1.40
2023-04-03T19:49:20.161Z,1.70
2023-04-03T20:00:20.062Z,1.70
2023-04-03T20:11:19.964Z,1.90
2023-04-03T20:22:19.780Z,1.50
2023-04-03T20:33:19.742Z,1.10
2023-04-03T20:44:19.524Z,1.40
2023-04-03T20:55:19.413Z,1.20
2023-04-03T21:06:19.367Z,1.30
2023-04-03T21:17:19.154Z,2.10
2023-04-03T21:28:19.096Z,1.80
2023-04-03T21:39:18.931Z,2.10
2023-04-03T21:50:18.784Z,2.40
2023-04-03T22:01:18.673Z,1.30
2023-04-03T22:12:18.574Z,1.60
2023-04-03T22:23:18.406Z,2.00
2023-04-03T22:34:18.291Z,1.80
2023-04-03T22:45:18.156Z,2.40
2023-04-03T22:56:19.036Z,1.90
2023-04-03T23:07:17.902Z,1.30
2023-04-03T23:18:17.805Z,2.00
2023-04-03T23:29:17.654Z,1.70
2023-04-03T23:40:17.543Z,1.40
2023-04-03T23:51:17.415Z,2.00
